sensor_id;sensor_type;location;lat;lon;timestamp;temperature;humidity
72650;SHT31;61467;50.674;4.618;2023-02-21T00:01:47;8.53;81.29
72650;SHT31;61467;50.674;4.618;2023-02-21T00:04:32;8.62;81.42
72650;SHT31;61467;50.674;4.618;2023-02-21T00:07:16;8.67;80.94
72650;SHT31;61467;50.674;4.618;2023-02-21T00:10:01;8.38;81.59
72650;SHT31;61467;50.674;4.618;2023-02-21T00:12:45;8.45;81.35
72650;SHT31;61467;50.674;4.618;2023-02-21T00:15:31;8.43;81.31
72650;SHT31;61467;50.674;4.618;2023-02-21T00:18:15;8.55;81.26
72650;SHT31;61467;50.674;4.618;2023-02-21T00:21:00;8.59;81.12
72650;SHT31;61467;50.674;4.618;2023-02-21T00:23:44;8.62;81.03
72650;SHT31;61467;50.674;4.618;2023-02-21T00:26:29;8.55;81.22
72650;SHT31;61467;50.674;4.618;2023-02-21T00:29:13;8.12;82.14
72650;SHT31;61467;50.674;4.618;2023-02-21T00:31:59;8.26;82.12
72650;SHT31;61467;50.674;4.618;2023-02-21T00:34:43;8.35;82.10
72650;SHT31;61467;50.674;4.618;2023-02-21T00:37:28;8.28;81.84
72650;SHT31;61467;50.674;4.618;2023-02-21T00:40:13;8.25;82.03
72650;SHT31;61467;50.674;4.618;2023-02-21T00:42:57;8.28;82.41
72650;SHT31;61467;50.674;4.618;2023-02-21T00:45:42;8.16;83.37
72650;SHT31;61467;50.674;4.618;2023-02-21T00:48:28;7.97;83.51
72650;SHT31;61467;50.674;4.618;2023-02-21T00:51:13;8.12;83.51
72650;SHT31;61467;50.674;4.618;2023-02-21T00:53:58;8.34;82.51
72650;SHT31;61467;50.674;4.618;2023-02-21T00:56:43;8.24;82.63
72650;SHT31;61467;50.674;4.618;2023-02-21T00:59:28;8.21;82.22
72650;SHT31;61467;50.674;4.618;2023-02-21T01:02:13;7.94;83.21
72650;SHT31;61467;50.674;4.618;2023-02-21T01:04:58;8.06;83.13
72650;SHT31;61467;50.674;4.618;2023-02-21T01:07:43;8.18;82.82
72650;SHT31;61467;50.674;4.618;2023-02-21T01:10:27;7.87;83.48
72650;SHT31;61467;50.674;4.618;2023-02-21T01:13:12;7.53;84.81
72650;SHT31;61467;50.674;4.618;2023-02-21T01:15:56;7.56;85.23
72650;SHT31;61467;50.674;4.618;2023-02-21T01:18:40;7.98;84.05
72650;SHT31;61467;50.674;4.618;2023-02-21T01:21:27;8.18;82.97
72650;SHT31;61467;50.674;4.618;2023-02-21T01:24:13;8.21;82.71
72650;SHT31;61467;50.674;4.618;2023-02-21T01:26:58;8.15;82.60
72650;SHT31;61467;50.674;4.618;2023-02-21T01:29:42;8.08;83.20
72650;SHT31;61467;50.674;4.618;2023-02-21T01:32:27;8.22;82.46
72650;SHT31;61467;50.674;4.618;2023-02-21T01:35:11;8.12;83.06
72650;SHT31;61467;50.674;4.618;2023-02-21T01:37:57;8.08;83.24
72650;SHT31;61467;50.674;4.618;2023-02-21T01:40:41;8.15;82.77
72650;SHT31;61467;50.674;4.618;2023-02-21T01:43:26;7.87;84.02
72650;SHT31;61467;50.674;4.618;2023-02-21T01:46:12;8.02;83.50
72650;SHT31;61467;50.674;4.618;2023-02-21T01:48:59;8.14;83.00
72650;SHT31;61467;50.674;4.618;2023-02-21T01:51:44;8.26;82.56
72650;SHT31;61467;50.674;4.618;2023-02-21T01:54:33;8.32;82.31
72650;SHT31;61467;50.674;4.618;2023-02-21T01:57:19;8.16;82.49
72650;SHT31;61467;50.674;4.618;2023-02-21T02:00:06;8.16;82.60
72650;SHT31;61467;50.674;4.618;2023-02-21T02:02:53;8.31;82.39
72650;SHT31;61467;50.674;4.618;2023-02-21T02:05:40;8.14;82.55
72650;SHT31;61467;50.674;4.618;2023-02-21T02:08:27;8.05;83.05
72650;SHT31;61467;50.674;4.618;2023-02-21T02:14:56;7.84;84.10
72650;SHT31;61467;50.674;4.618;2023-02-21T02:17:35;7.94;83.63
72650;SHT31;61467;50.674;4.618;2023-02-21T02:26:22;8.08;83.61
72650;SHT31;61467;50.674;4.618;2023-02-21T02:29:10;8.08;83.32
72650;SHT31;61467;50.674;4.618;2023-02-21T02:31:56;8.14;83.31
72650;SHT31;61467;50.674;4.618;2023-02-21T02:34:53;8.24;82.91
72650;SHT31;61467;50.674;4.618;2023-02-21T02:37:24;8.39;82.52
72650;SHT31;61467;50.674;4.618;2023-02-21T02:39:59;8.46;82.23
72650;SHT31;61467;50.674;4.618;2023-02-21T02:42:37;8.46;81.88
72650;SHT31;61467;50.674;4.618;2023-02-21T02:45:09;8.49;82.09
72650;SHT31;61467;50.674;4.618;2023-02-21T02:47:41;8.35;82.42
72650;SHT31;61467;50.674;4.618;2023-02-21T02:50:12;8.14;82.96
72650;SHT31;61467;50.674;4.618;2023-02-21T02:52:49;8.20;83.24
72650;SHT31;61467;50.674;4.618;2023-02-21T02:55:31;8.39;82.36
72650;SHT31;61467;50.674;4.618;2023-02-21T02:58:00;8.32;82.36
72650;SHT31;61467;50.674;4.618;2023-02-21T03:00:28;8.21;82.40
72650;SHT31;61467;50.674;4.618;2023-02-21T03:03:08;8.42;82.36
72650;SHT31;61467;50.674;4.618;2023-02-21T03:05:52;8.39;82.29
72650;SHT31;61467;50.674;4.618;2023-02-21T03:08:26;8.35;82.08
72650;SHT31;61467;50.674;4.618;2023-02-21T03:11:00;8.42;82.10
72650;SHT31;61467;50.674;4.618;2023-02-21T03:13:36;8.42;82.00
72650;SHT31;61467;50.674;4.618;2023-02-21T03:16:13;8.34;82.16
72650;SHT31;61467;50.674;4.618;2023-02-21T03:18:43;8.35;82.13
72650;SHT31;61467;50.674;4.618;2023-02-21T03:21:17;8.31;82.11
72650;SHT31;61467;50.674;4.618;2023-02-21T03:23:48;8.22;82.56
72650;SHT31;61467;50.674;4.618;2023-02-21T03:26:16;8.21;82.65
72650;SHT31;61467;50.674;4.618;2023-02-21T03:28:44;8.35;82.06
72650;SHT31;61467;50.674;4.618;2023-02-21T03:31:13;8.38;81.84
72650;SHT31;61467;50.674;4.618;2023-02-21T03:33:41;8.20;81.91
72650;SHT31;61467;50.674;4.618;2023-02-21T03:36:09;8.16;82.24
72650;SHT31;61467;50.674;4.618;2023-02-21T03:38:38;7.99;82.58
72650;SHT31;61467;50.674;4.618;2023-02-21T03:41:08;7.88;82.95
72650;SHT31;61467;50.674;4.618;2023-02-21T03:43:35;7.94;82.92
72650;SHT31;61467;50.674;4.618;2023-02-21T03:46:02;8.04;83.27
72650;SHT31;61467;50.674;4.618;2023-02-21T03:48:29;7.98;83.12
72650;SHT31;61467;50.674;4.618;2023-02-21T03:50:56;8.09;82.85
72650;SHT31;61467;50.674;4.618;2023-02-21T03:53:23;8.01;82.51
72650;SHT31;61467;50.674;4.618;2023-02-21T03:55:51;8.04;82.46
72650;SHT31;61467;50.674;4.618;2023-02-21T03:58:18;8.15;82.18
72650;SHT31;61467;50.674;4.618;2023-02-21T04:00:44;7.95;82.52
72650;SHT31;61467;50.674;4.618;2023-02-21T04:03:12;8.02;82.51
72650;SHT31;61467;50.674;4.618;2023-02-21T04:05:39;8.01;82.85
72650;SHT31;61467;50.674;4.618;2023-02-21T04:08:06;7.74;83.34
72650;SHT31;61467;50.674;4.618;2023-02-21T04:10:33;7.73;83.23
72650;SHT31;61467;50.674;4.618;2023-02-21T04:13:01;7.98;82.85
72650;SHT31;61467;50.674;4.618;2023-02-21T04:15:28;7.84;82.58
72650;SHT31;61467;50.674;4.618;2023-02-21T04:17:55;8.01;82.63
72650;SHT31;61467;50.674;4.618;2023-02-21T04:20:21;7.95;82.31
72650;SHT31;61467;50.674;4.618;2023-02-21T04:22:48;7.99;82.31
72650;SHT31;61467;50.674;4.618;2023-02-21T04:25:15;8.08;82.10
72650;SHT31;61467;50.674;4.618;2023-02-21T04:27:42;7.83;82.42
72650;SHT31;61467;50.674;4.618;2023-02-21T04:30:11;7.87;82.98
72650;SHT31;61467;50.674;4.618;2023-02-21T04:32:38;7.83;83.03
72650;SHT31;61467;50.674;4.618;2023-02-21T04:35:05;7.59;83.23
72650;SHT31;61467;50.674;4.618;2023-02-21T04:37:32;7.81;82.87
72650;SHT31;61467;50.674;4.618;2023-02-21T04:39:58;7.73;82.94
72650;SHT31;61467;50.674;4.618;2023-02-21T04:42:25;7.84;83.08
72650;SHT31;61467;50.674;4.618;2023-02-21T04:44:52;7.95;82.68
72650;SHT31;61467;50.674;4.618;2023-02-21T04:47:20;7.91;82.95
72650;SHT31;61467;50.674;4.618;2023-02-21T04:49:47;8.01;82.75
72650;SHT31;61467;50.674;4.618;2023-02-21T04:52:16;7.94;82.50
72650;SHT31;61467;50.674;4.618;2023-02-21T04:54:45;7.94;82.71
72650;SHT31;61467;50.674;4.618;2023-02-21T04:57:12;7.91;82.39
72650;SHT31;61467;50.674;4.618;2023-02-21T04:59:39;7.80;82.61
72650;SHT31;61467;50.674;4.618;2023-02-21T05:02:06;7.80;82.95
72650;SHT31;61467;50.674;4.618;2023-02-21T05:04:34;7.74;82.67
72650;SHT31;61467;50.674;4.618;2023-02-21T05:07:01;7.93;82.57
72650;SHT31;61467;50.674;4.618;2023-02-21T05:09:28;7.73;82.74
72650;SHT31;61467;50.674;4.618;2023-02-21T05:11:55;7.77;82.70
72650;SHT31;61467;50.674;4.618;2023-02-21T05:14:22;7.80;82.79
72650;SHT31;61467;50.674;4.618;2023-02-21T05:16:48;7.63;83.41
72650;SHT31;61467;50.674;4.618;2023-02-21T05:19:18;7.83;83.34
72650;SHT31;61467;50.674;4.618;2023-02-21T05:21:54;7.94;82.92
72650;SHT31;61467;50.674;4.618;2023-02-21T05:24:22;7.90;82.96
72650;SHT31;61467;50.674;4.618;2023-02-21T05:26:49;7.88;82.86
72650;SHT31;61467;50.674;4.618;2023-02-21T05:29:16;7.81;82.73
72650;SHT31;61467;50.674;4.618;2023-02-21T05:31:43;7.77;82.77
72650;SHT31;61467;50.674;4.618;2023-02-21T05:34:11;7.85;82.78
72650;SHT31;61467;50.674;4.618;2023-02-21T05:36:38;7.70;83.07
72650;SHT31;61467;50.674;4.618;2023-02-21T05:39:07;7.74;82.99
72650;SHT31;61467;50.674;4.618;2023-02-21T05:41:34;7.63;83.68
72650;SHT31;61467;50.674;4.618;2023-02-21T05:44:02;7.63;83.53
72650;SHT31;61467;50.674;4.618;2023-02-21T05:46:31;7.73;82.91
72650;SHT31;61467;50.674;4.618;2023-02-21T05:49:00;7.95;82.85
72650;SHT31;61467;50.674;4.618;2023-02-21T05:51:30;7.83;82.69
72650;SHT31;61467;50.674;4.618;2023-02-21T05:53:59;7.83;82.80
72650;SHT31;61467;50.674;4.618;2023-02-21T05:56:27;7.87;82.95
72650;SHT31;61467;50.674;4.618;2023-02-21T05:58:54;7.80;83.18
72650;SHT31;61467;50.674;4.618;2023-02-21T06:01:20;7.84;82.67
72650;SHT31;61467;50.674;4.618;2023-02-21T06:03:47;7.67;83.25
72650;SHT31;61467;50.674;4.618;2023-02-21T06:06:16;7.73;83.11
72650;SHT31;61467;50.674;4.618;2023-02-21T06:08:44;7.70;83.16
72650;SHT31;61467;50.674;4.618;2023-02-21T06:11:11;7.59;83.54
72650;SHT31;61467;50.674;4.618;2023-02-21T06:13:40;7.47;84.01
72650;SHT31;61467;50.674;4.618;2023-02-21T06:16:07;7.62;83.99
72650;SHT31;61467;50.674;4.618;2023-02-21T06:18:34;7.66;84.05
72650;SHT31;61467;50.674;4.618;2023-02-21T06:21:00;7.57;84.49
72650;SHT31;61467;50.674;4.618;2023-02-21T06:23:27;7.78;83.71
72650;SHT31;61467;50.674;4.618;2023-02-21T06:25:54;7.77;83.99
72650;SHT31;61467;50.674;4.618;2023-02-21T06:28:21;7.83;83.64
72650;SHT31;61467;50.674;4.618;2023-02-21T06:30:49;7.93;83.21
72650;SHT31;61467;50.674;4.618;2023-02-21T06:33:16;7.85;83.60
72650;SHT31;61467;50.674;4.618;2023-02-21T06:35:43;7.73;84.32
72650;SHT31;61467;50.674;4.618;2023-02-21T06:38:09;7.56;84.18
72650;SHT31;61467;50.674;4.618;2023-02-21T06:40:36;7.43;84.68
72650;SHT31;61467;50.674;4.618;2023-02-21T06:43:03;7.39;84.45
72650;SHT31;61467;50.674;4.618;2023-02-21T06:45:30;7.42;84.54
72650;SHT31;61467;50.674;4.618;2023-02-21T06:47:58;7.49;84.84
72650;SHT31;61467;50.674;4.618;2023-02-21T06:50:25;7.56;84.64
72650;SHT31;61467;50.674;4.618;2023-02-21T06:52:52;7.56;84.37
72650;SHT31;61467;50.674;4.618;2023-02-21T06:55:19;7.69;84.48
72650;SHT31;61467;50.674;4.618;2023-02-21T06:57:46;7.87;82.93
72650;SHT31;61467;50.674;4.618;2023-02-21T07:00:14;7.70;83.01
72650;SHT31;61467;50.674;4.618;2023-02-21T07:02:41;7.73;83.12
72650;SHT31;61467;50.674;4.618;2023-02-21T07:05:10;7.39;83.60
72650;SHT31;61467;50.674;4.618;2023-02-21T07:07:39;7.40;84.22
72650;SHT31;61467;50.674;4.618;2023-02-21T07:10:07;7.44;84.27
72650;SHT31;61467;50.674;4.618;2023-02-21T07:12:34;7.50;84.12
72650;SHT31;61467;50.674;4.618;2023-02-21T07:15:01;7.46;83.71
72650;SHT31;61467;50.674;4.618;2023-02-21T07:17:28;7.73;83.29
72650;SHT31;61467;50.674;4.618;2023-02-21T07:19:55;7.73;83.48
72650;SHT31;61467;50.674;4.618;2023-02-21T07:22:23;7.81;83.16
72650;SHT31;61467;50.674;4.618;2023-02-21T07:24:51;7.81;82.75
72650;SHT31;61467;50.674;4.618;2023-02-21T07:27:19;7.71;83.30
72650;SHT31;61467;50.674;4.618;2023-02-21T07:29:46;7.88;82.89
72650;SHT31;61467;50.674;4.618;2023-02-21T07:32:13;7.95;82.74
72650;SHT31;61467;50.674;4.618;2023-02-21T07:34:40;8.02;82.66
72650;SHT31;61467;50.674;4.618;2023-02-21T07:37:07;7.93;82.64
72650;SHT31;61467;50.674;4.618;2023-02-21T07:39:35;8.06;82.64
72650;SHT31;61467;50.674;4.618;2023-02-21T07:42:02;8.15;82.31
72650;SHT31;61467;50.674;4.618;2023-02-21T07:44:29;8.12;82.26
72650;SHT31;61467;50.674;4.618;2023-02-21T07:46:56;8.09;82.04
72650;SHT31;61467;50.674;4.618;2023-02-21T07:49:23;7.98;82.56
72650;SHT31;61467;50.674;4.618;2023-02-21T07:51:50;8.04;82.32
72650;SHT31;61467;50.674;4.618;2023-02-21T07:54:17;7.88;82.62
72650;SHT31;61467;50.674;4.618;2023-02-21T07:56:47;7.99;82.70
72650;SHT31;61467;50.674;4.618;2023-02-21T07:59:14;7.98;82.19
72650;SHT31;61467;50.674;4.618;2023-02-21T08:01:41;7.94;82.70
72650;SHT31;61467;50.674;4.618;2023-02-21T08:04:08;8.08;82.18
72650;SHT31;61467;50.674;4.618;2023-02-21T08:06:35;8.11;81.82
72650;SHT31;61467;50.674;4.618;2023-02-21T08:09:03;8.16;81.89
72650;SHT31;61467;50.674;4.618;2023-02-21T08:11:30;8.18;82.01
72650;SHT31;61467;50.674;4.618;2023-02-21T08:13:59;8.16;81.83
72650;SHT31;61467;50.674;4.618;2023-02-21T08:16:26;8.21;81.51
72650;SHT31;61467;50.674;4.618;2023-02-21T08:18:53;8.06;81.44
72650;SHT31;61467;50.674;4.618;2023-02-21T08:21:20;7.94;81.71
72650;SHT31;61467;50.674;4.618;2023-02-21T08:23:47;7.95;82.30
72650;SHT31;61467;50.674;4.618;2023-02-21T08:26:14;7.84;82.22
72650;SHT31;61467;50.674;4.618;2023-02-21T08:28:42;7.93;82.09
72650;SHT31;61467;50.674;4.618;2023-02-21T08:31:10;8.02;81.98
72650;SHT31;61467;50.674;4.618;2023-02-21T08:33:37;8.08;81.59
72650;SHT31;61467;50.674;4.618;2023-02-21T08:36:04;8.15;81.34
72650;SHT31;61467;50.674;4.618;2023-02-21T08:38:32;8.08;81.18
72650;SHT31;61467;50.674;4.618;2023-02-21T08:40:59;8.08;81.48
72650;SHT31;61467;50.674;4.618;2023-02-21T08:43:27;7.98;81.68
72650;SHT31;61467;50.674;4.618;2023-02-21T08:45:54;8.14;81.60
72650;SHT31;61467;50.674;4.618;2023-02-21T08:48:22;8.11;81.44
72650;SHT31;61467;50.674;4.618;2023-02-21T08:50:49;8.24;81.24
72650;SHT31;61467;50.674;4.618;2023-02-21T08:53:18;8.21;80.85
72650;SHT31;61467;50.674;4.618;2023-02-21T08:55:45;8.14;81.05
72650;SHT31;61467;50.674;4.618;2023-02-21T08:58:12;8.25;81.14
72650;SHT31;61467;50.674;4.618;2023-02-21T09:00:39;8.38;80.90
72650;SHT31;61467;50.674;4.618;2023-02-21T09:03:06;8.24;81.14
72650;SHT31;61467;50.674;4.618;2023-02-21T09:05:35;8.25;80.80
72650;SHT31;61467;50.674;4.618;2023-02-21T09:08:02;8.28;80.74
72650;SHT31;61467;50.674;4.618;2023-02-21T09:10:31;8.16;80.93
72650;SHT31;61467;50.674;4.618;2023-02-21T09:12:59;8.20;80.50
72650;SHT31;61467;50.674;4.618;2023-02-21T09:15:25;8.20;80.70
72650;SHT31;61467;50.674;4.618;2023-02-21T09:17:53;8.26;80.39
72650;SHT31;61467;50.674;4.618;2023-02-21T09:20:22;8.21;80.47
72650;SHT31;61467;50.674;4.618;2023-02-21T09:22:50;8.05;80.51
72650;SHT31;61467;50.674;4.618;2023-02-21T09:25:19;8.15;80.74
72650;SHT31;61467;50.674;4.618;2023-02-21T09:27:48;8.28;80.36
72650;SHT31;61467;50.674;4.618;2023-02-21T09:30:18;8.25;80.34
72650;SHT31;61467;50.674;4.618;2023-02-21T09:32:46;8.21;80.71
72650;SHT31;61467;50.674;4.618;2023-02-21T09:35:14;8.24;80.74
72650;SHT31;61467;50.674;4.618;2023-02-21T09:37:41;8.28;80.74
72650;SHT31;61467;50.674;4.618;2023-02-21T09:40:15;8.24;80.58
72650;SHT31;61467;50.674;4.618;2023-02-21T09:42:43;8.16;80.79
72650;SHT31;61467;50.674;4.618;2023-02-21T09:45:14;8.22;81.02
72650;SHT31;61467;50.674;4.618;2023-02-21T09:47:44;7.87;82.01
72650;SHT31;61467;50.674;4.618;2023-02-21T09:50:18;8.11;81.46
72650;SHT31;61467;50.674;4.618;2023-02-21T09:52:46;8.14;80.74
72650;SHT31;61467;50.674;4.618;2023-02-21T09:55:29;8.15;80.63
72650;SHT31;61467;50.674;4.618;2023-02-21T09:57:57;8.16;80.47
72650;SHT31;61467;50.674;4.618;2023-02-21T10:00:27;8.06;80.81
72650;SHT31;61467;50.674;4.618;2023-02-21T10:03:00;8.09;81.11
72650;SHT31;61467;50.674;4.618;2023-02-21T10:05:38;8.26;80.49
72650;SHT31;61467;50.674;4.618;2023-02-21T10:08:15;8.36;80.09
72650;SHT31;61467;50.674;4.618;2023-02-21T10:10:47;8.29;80.35
72650;SHT31;61467;50.674;4.618;2023-02-21T10:13:28;8.12;80.46
72650;SHT31;61467;50.674;4.618;2023-02-21T10:16:00;8.35;80.47
72650;SHT31;61467;50.674;4.618;2023-02-21T10:18:34;8.39;80.24
72650;SHT31;61467;50.674;4.618;2023-02-21T10:21:11;8.31;79.72
72650;SHT31;61467;50.674;4.618;2023-02-21T10:23:44;8.36;80.05
72650;SHT31;61467;50.674;4.618;2023-02-21T10:26:17;8.31;80.01
72650;SHT31;61467;50.674;4.618;2023-02-21T10:28:45;8.42;79.98
72650;SHT31;61467;50.674;4.618;2023-02-21T10:31:17;8.34;79.71
72650;SHT31;61467;50.674;4.618;2023-02-21T10:33:45;8.55;79.40
72650;SHT31;61467;50.674;4.618;2023-02-21T10:36:15;8.62;79.07
72650;SHT31;61467;50.674;4.618;2023-02-21T10:38:48;8.72;78.83
72650;SHT31;61467;50.674;4.618;2023-02-21T10:41:20;8.56;78.59
72650;SHT31;61467;50.674;4.618;2023-02-21T10:43:50;8.63;78.76
72650;SHT31;61467;50.674;4.618;2023-02-21T10:46:22;8.77;78.59
72650;SHT31;61467;50.674;4.618;2023-02-21T10:48:52;8.73;78.45
72650;SHT31;61467;50.674;4.618;2023-02-21T10:51:28;8.63;79.00
72650;SHT31;61467;50.674;4.618;2023-02-21T10:54:16;8.69;79.06
72650;SHT31;61467;50.674;4.618;2023-02-21T10:56:48;8.76;78.67
72650;SHT31;61467;50.674;4.618;2023-02-21T10:59:22;8.65;78.16
72650;SHT31;61467;50.674;4.618;2023-02-21T11:01:51;8.74;78.05
72650;SHT31;61467;50.674;4.618;2023-02-21T11:04:27;8.83;77.80
72650;SHT31;61467;50.674;4.618;2023-02-21T11:06:57;8.84;77.99
72650;SHT31;61467;50.674;4.618;2023-02-21T11:09:31;8.73;77.72
72650;SHT31;61467;50.674;4.618;2023-02-21T11:12:03;8.55;78.36
72650;SHT31;61467;50.674;4.618;2023-02-21T11:14:31;8.53;78.73
72650;SHT31;61467;50.674;4.618;2023-02-21T11:17:08;8.79;78.00
72650;SHT31;61467;50.674;4.618;2023-02-21T11:19:49;8.86;78.04
72650;SHT31;61467;50.674;4.618;2023-02-21T11:22:19;8.46;79.27
72650;SHT31;61467;50.674;4.618;2023-02-21T11:24:51;8.84;78.47
72650;SHT31;61467;50.674;4.618;2023-02-21T11:27:19;8.96;77.77
72650;SHT31;61467;50.674;4.618;2023-02-21T11:29:48;8.81;77.74
72650;SHT31;61467;50.674;4.618;2023-02-21T11:32:24;9.03;77.39
72650;SHT31;61467;50.674;4.618;2023-02-21T11:35:00;8.93;77.60
72650;SHT31;61467;50.674;4.618;2023-02-21T11:37:27;9.18;77.00
72650;SHT31;61467;50.674;4.618;2023-02-21T11:39:56;9.07;76.95
72650;SHT31;61467;50.674;4.618;2023-02-21T11:42:28;9.05;76.73
72650;SHT31;61467;50.674;4.618;2023-02-21T11:45:19;9.21;76.27
72650;SHT31;61467;50.674;4.618;2023-02-21T11:47:52;8.91;76.59
72650;SHT31;61467;50.674;4.618;2023-02-21T11:50:24;9.25;76.10
72650;SHT31;61467;50.674;4.618;2023-02-21T11:52:57;9.15;76.29
72650;SHT31;61467;50.674;4.618;2023-02-21T11:55:25;9.36;75.06
72650;SHT31;61467;50.674;4.618;2023-02-21T11:58:05;9.24;75.50
72650;SHT31;61467;50.674;4.618;2023-02-21T12:00:40;9.15;75.59
72650;SHT31;61467;50.674;4.618;2023-02-21T12:03:40;9.17;76.00
72650;SHT31;61467;50.674;4.618;2023-02-21T12:06:19;9.25;75.94
72650;SHT31;61467;50.674;4.618;2023-02-21T12:08:50;9.38;74.95
72650;SHT31;61467;50.674;4.618;2023-02-21T12:11:33;9.24;75.43
72650;SHT31;61467;50.674;4.618;2023-02-21T12:14:14;9.45;75.03
72650;SHT31;61467;50.674;4.618;2023-02-21T12:16:51;9.32;75.65
72650;SHT31;61467;50.674;4.618;2023-02-21T12:19:34;9.61;74.90
72650;SHT31;61467;50.674;4.618;2023-02-21T12:22:06;9.62;74.75
72650;SHT31;61467;50.674;4.618;2023-02-21T12:24:49;9.73;74.11
72650;SHT31;61467;50.674;4.618;2023-02-21T12:27:29;9.63;74.74
72650;SHT31;61467;50.674;4.618;2023-02-21T12:30:15;9.46;74.47
72650;SHT31;61467;50.674;4.618;2023-02-21T12:32:49;9.45;74.42
72650;SHT31;61467;50.674;4.618;2023-02-21T12:35:51;9.63;74.51
72650;SHT31;61467;50.674;4.618;2023-02-21T12:38:30;9.73;74.30
72650;SHT31;61467;50.674;4.618;2023-02-21T12:41:06;9.76;74.77
72650;SHT31;61467;50.674;4.618;2023-02-21T12:43:50;9.99;73.68
72650;SHT31;61467;50.674;4.618;2023-02-21T12:46:25;10.07;73.29
72650;SHT31;61467;50.674;4.618;2023-02-21T12:48:58;10.17;73.13
72650;SHT31;61467;50.674;4.618;2023-02-21T12:51:31;10.02;72.45
72650;SHT31;61467;50.674;4.618;2023-02-21T12:54:01;10.16;73.00
72650;SHT31;61467;50.674;4.618;2023-02-21T12:56:34;10.20;72.77
72650;SHT31;61467;50.674;4.618;2023-02-21T12:59:07;10.17;72.67
72650;SHT31;61467;50.674;4.618;2023-02-21T13:01:42;10.24;72.32
72650;SHT31;61467;50.674;4.618;2023-02-21T13:04:17;10.10;72.49
72650;SHT31;61467;50.674;4.618;2023-02-21T13:06:50;10.06;72.97
72650;SHT31;61467;50.674;4.618;2023-02-21T13:09:25;10.36;72.13
72650;SHT31;61467;50.674;4.618;2023-02-21T13:11:59;10.26;72.63
72650;SHT31;61467;50.674;4.618;2023-02-21T13:14:33;10.10;72.45
72650;SHT31;61467;50.674;4.618;2023-02-21T13:17:03;10.26;72.73
72650;SHT31;61467;50.674;4.618;2023-02-21T13:19:38;10.18;72.81
72650;SHT31;61467;50.674;4.618;2023-02-21T13:22:21;10.47;72.00
72650;SHT31;61467;50.674;4.618;2023-02-21T13:25:18;10.61;71.72
72650;SHT31;61467;50.674;4.618;2023-02-21T13:27:55;10.51;71.98
72650;SHT31;61467;50.674;4.618;2023-02-21T13:30:26;10.47;71.35
72650;SHT31;61467;50.674;4.618;2023-02-21T13:32:56;10.71;71.97
72650;SHT31;61467;50.674;4.618;2023-02-21T13:35:28;10.82;71.32
72650;SHT31;61467;50.674;4.618;2023-02-21T13:37:57;10.33;71.93
72650;SHT31;61467;50.674;4.618;2023-02-21T13:40:32;10.04;72.44
72650;SHT31;61467;50.674;4.618;2023-02-21T13:43:03;10.29;72.73
72650;SHT31;61467;50.674;4.618;2023-02-21T13:45:32;10.20;72.40
72650;SHT31;61467;50.674;4.618;2023-02-21T13:48:22;10.18;72.28
72650;SHT31;61467;50.674;4.618;2023-02-21T13:50:50;10.32;72.43
72650;SHT31;61467;50.674;4.618;2023-02-21T13:53:18;10.51;72.02
72650;SHT31;61467;50.674;4.618;2023-02-21T13:56:11;10.64;71.98
72650;SHT31;61467;50.674;4.618;2023-02-21T13:58:39;10.86;71.05
72650;SHT31;61467;50.674;4.618;2023-02-21T14:01:23;10.72;70.97
72650;SHT31;61467;50.674;4.618;2023-02-21T14:07:02;10.61;71.16
72650;SHT31;61467;50.674;4.618;2023-02-21T14:09:34;10.86;70.95
72650;SHT31;61467;50.674;4.618;2023-02-21T14:12:02;10.81;70.90
72650;SHT31;61467;50.674;4.618;2023-02-21T14:14:34;10.74;70.81
72650;SHT31;61467;50.674;4.618;2023-02-21T14:17:05;10.99;70.53
72650;SHT31;61467;50.674;4.618;2023-02-21T14:19:35;10.71;70.52
72650;SHT31;61467;50.674;4.618;2023-02-21T14:22:11;10.61;71.14
72650;SHT31;61467;50.674;4.618;2023-02-21T14:24:41;10.72;71.11
72650;SHT31;61467;50.674;4.618;2023-02-21T14:27:32;10.94;70.76
72650;SHT31;61467;50.674;4.618;2023-02-21T14:30:30;10.76;70.72
72650;SHT31;61467;50.674;4.618;2023-02-21T14:33:19;10.82;71.09
72650;SHT31;61467;50.674;4.618;2023-02-21T14:35:54;10.65;71.18
72650;SHT31;61467;50.674;4.618;2023-02-21T14:38:27;10.89;71.26
72650;SHT31;61467;50.674;4.618;2023-02-21T14:41:06;10.82;71.05
72650;SHT31;61467;50.674;4.618;2023-02-21T14:43:48;10.92;70.61
72650;SHT31;61467;50.674;4.618;2023-02-21T14:46:45;10.89;70.91
72650;SHT31;61467;50.674;4.618;2023-02-21T14:49:52;11.05;70.43
72650;SHT31;61467;50.674;4.618;2023-02-21T14:52:39;11.01;70.41
72650;SHT31;61467;50.674;4.618;2023-02-21T14:55:30;10.92;70.74
72650;SHT31;61467;50.674;4.618;2023-02-21T15:01:03;10.61;71.54
72650;SHT31;61467;50.674;4.618;2023-02-21T15:03:36;10.81;71.17
72650;SHT31;61467;50.674;4.618;2023-02-21T15:06:06;10.84;71.05
72650;SHT31;61467;50.674;4.618;2023-02-21T15:08:42;10.81;70.97
72650;SHT31;61467;50.674;4.618;2023-02-21T15:11:22;10.75;71.07
72650;SHT31;61467;50.674;4.618;2023-02-21T15:14:11;10.71;70.97
72650;SHT31;61467;50.674;4.618;2023-02-21T15:16:42;10.68;71.50
72650;SHT31;61467;50.674;4.618;2023-02-21T15:19:20;10.30;72.10
72650;SHT31;61467;50.674;4.618;2023-02-21T15:21:47;10.23;72.80
72650;SHT31;61467;50.674;4.618;2023-02-21T15:24:15;10.38;72.70
72650;SHT31;61467;50.674;4.618;2023-02-21T15:26:43;9.96;73.94
72650;SHT31;61467;50.674;4.618;2023-02-21T15:29:12;10.03;73.89
72650;SHT31;61467;50.674;4.618;2023-02-21T15:31:41;10.06;73.74
72650;SHT31;61467;50.674;4.618;2023-02-21T15:34:14;10.26;73.06
72650;SHT31;61467;50.674;4.618;2023-02-21T15:36:43;10.20;73.10
72650;SHT31;61467;50.674;4.618;2023-02-21T15:39:15;10.24;73.30
72650;SHT31;61467;50.674;4.618;2023-02-21T15:41:46;9.90;73.86
72650;SHT31;61467;50.674;4.618;2023-02-21T15:44:17;9.85;74.24
72650;SHT31;61467;50.674;4.618;2023-02-21T15:46:46;9.92;74.27
72650;SHT31;61467;50.674;4.618;2023-02-21T15:49:18;10.12;73.64
72650;SHT31;61467;50.674;4.618;2023-02-21T15:51:46;10.24;73.08
72650;SHT31;61467;50.674;4.618;2023-02-21T15:54:26;10.34;72.93
72650;SHT31;61467;50.674;4.618;2023-02-21T15:57:04;10.12;73.14
72650;SHT31;61467;50.674;4.618;2023-02-21T15:59:31;9.78;73.87
72650;SHT31;61467;50.674;4.618;2023-02-21T16:02:17;9.81;73.95
72650;SHT31;61467;50.674;4.618;2023-02-21T16:04:48;9.90;73.91
72650;SHT31;61467;50.674;4.618;2023-02-21T16:07:22;9.82;73.89
72650;SHT31;61467;50.674;4.618;2023-02-21T16:09:57;10.03;73.59
72650;SHT31;61467;50.674;4.618;2023-02-21T16:12:30;9.72;74.37
72650;SHT31;61467;50.674;4.618;2023-02-21T16:15:00;9.83;74.04
72650;SHT31;61467;50.674;4.618;2023-02-21T16:17:30;9.86;73.99
72650;SHT31;61467;50.674;4.618;2023-02-21T16:20:00;9.96;73.72
72650;SHT31;61467;50.674;4.618;2023-02-21T16:22:32;10.00;73.54
72650;SHT31;61467;50.674;4.618;2023-02-21T16:25:12;9.90;73.46
72650;SHT31;61467;50.674;4.618;2023-02-21T16:27:44;9.86;73.74
72650;SHT31;61467;50.674;4.618;2023-02-21T16:30:13;9.62;74.30
72650;SHT31;61467;50.674;4.618;2023-02-21T16:32:41;9.66;74.45
72650;SHT31;61467;50.674;4.618;2023-02-21T16:35:13;9.78;74.12
72650;SHT31;61467;50.674;4.618;2023-02-21T16:37:40;9.56;74.38